createdAt,value
2016-11-11T00:01:14.281Z,929.72
2016-11-11T00:02:27.897Z,929.75
2016-11-11T00:03:41.554Z,929.76
2016-11-11T00:04:55.164Z,929.75
2016-11-11T00:06:08.775Z,929.74
2016-11-11T00:07:21.948Z,929.74
2016-11-11T00:08:35.921Z,929.7
2016-11-11T00:09:49.001Z,929.77
2016-11-11T00:11:03.126Z,929.77
2016-11-11T00:12:16.695Z,929.78
2016-11-11T00:13:30.324Z,929.83
2016-11-11T00:14:44.051Z,929.85
2016-11-11T00:15:57.705Z,929.88
2016-11-11T00:17:10.021Z,929.85
2016-11-11T00:18:23.607Z,929.86
2016-11-11T00:19:37.442Z,929.85
2016-11-11T00:20:51.214Z,929.88
2016-11-11T00:22:04.610Z,929.88
2016-11-11T00:23:17.176Z,929.88
2016-11-11T00:24:30.861Z,929.88
2016-11-11T00:25:44.401Z,929.89
2016-11-11T00:26:57.513Z,929.88
2016-11-11T00:28:10.610Z,929.89
2016-11-11T00:29:24.042Z,929.94
2016-11-11T00:30:36.029Z,929.92
2016-11-11T00:31:49.563Z,929.92
2016-11-11T00:33:03.100Z,929.94
2016-11-11T00:34:16.788Z,929.92
2016-11-11T00:35:29.890Z,929.89
2016-11-11T00:36:43.146Z,929.91
2016-11-11T00:37:56.219Z,929.9
2016-11-11T00:39:09.878Z,929.85
2016-11-11T00:40:23.449Z,929.89
2016-11-11T00:41:37.372Z,929.86
2016-11-11T00:42:50.737Z,929.93
2016-11-11T00:44:04.399Z,929.93
2016-11-11T00:45:17.987Z,929.94
2016-11-11T00:46:31.114Z,929.94
2016-11-11T00:47:44.774Z,929.94
2016-11-11T00:48:58.445Z,929.96
2016-11-11T00:50:12.122Z,930
2016-11-11T00:51:25.727Z,929.9
2016-11-11T00:52:39.361Z,929.95
2016-11-11T00:53:53.032Z,929.91
2016-11-11T00:55:06.606Z,929.96
2016-11-11T00:56:19.694Z,929.94
2016-11-11T00:57:33.093Z,929.97
2016-11-11T00:58:46.695Z,929.98
2016-11-11T01:00:00.265Z,930.01
2016-11-11T01:01:13.905Z,930.06
2016-11-11T01:02:27.023Z,930.08
2016-11-11T01:03:40.631Z,930.12
2016-11-11T01:04:54.144Z,930.15
2016-11-11T01:06:06.068Z,930.12
2016-11-11T01:07:19.649Z,930.1
2016-11-11T01:08:33.077Z,930.07
2016-11-11T01:09:46.666Z,929.99
2016-11-11T01:11:00.289Z,930.01
2016-11-11T01:12:13.359Z,930.05
2016-11-11T01:13:26.924Z,930.02
2016-11-11T01:14:40.243Z,930.09
2016-11-11T01:15:53.847Z,930.07
2016-11-11T01:17:07.266Z,930.08
2016-11-11T01:18:20.894Z,930.13
2016-11-11T01:19:34.516Z,930.14
2016-11-11T01:20:48.110Z,930.12
2016-11-11T01:22:01.758Z,930.15
2016-11-11T01:23:15.370Z,930.11
2016-11-11T01:24:28.531Z,930.11
2016-11-11T01:25:41.642Z,930.12
2016-11-11T01:26:55.381Z,930.06
2016-11-11T01:28:08.515Z,930.12
2016-11-11T01:29:21.613Z,930.13
2016-11-11T01:30:35.103Z,930.09
2016-11-11T01:31:48.241Z,930.1
2016-11-11T01:33:01.334Z,930.1
2016-11-11T01:34:14.921Z,930.1
2016-11-11T01:35:28.608Z,930.11
2016-11-11T01:36:41.709Z,930.08
2016-11-11T01:37:54.777Z,930.08
2016-11-11T01:39:08.434Z,930.02
2016-11-11T01:40:20.697Z,929.99
2016-11-11T01:41:33.478Z,929.97
2016-11-11T01:42:46.609Z,929.93
2016-11-11T01:44:00.189Z,929.88
2016-11-11T01:45:13.866Z,929.81
2016-11-11T01:46:27.457Z,929.81
2016-11-11T01:47:41.116Z,929.79
2016-11-11T01:48:54.172Z,929.82
2016-11-11T01:50:07.714Z,929.84
2016-11-11T01:51:20.212Z,929.84
2016-11-11T01:52:34.275Z,929.8
2016-11-11T01:53:47.901Z,929.79
2016-11-11T01:55:01.475Z,929.79
2016-11-11T01:56:15.069Z,929.76
2016-11-11T01:57:27.614Z,929.75
2016-11-11T01:58:41.121Z,929.71
2016-11-11T01:59:54.802Z,929.7
2016-11-11T02:01:08.383Z,929.7
2016-11-11T02:02:21.398Z,929.68
2016-11-11T02:03:35.024Z,929.61
2016-11-11T02:04:48.359Z,929.57
2016-11-11T02:06:01.525Z,929.59
2016-11-11T02:07:15.220Z,929.57
2016-11-11T02:08:28.321Z,929.6
2016-11-11T02:09:41.912Z,929.57
2016-11-11T02:10:54.424Z,929.55
2016-11-11T02:12:08.079Z,929.55
2016-11-11T02:13:21.110Z,929.54
2016-11-11T02:14:34.783Z,929.49
2016-11-11T02:15:47.292Z,929.47
2016-11-11T02:17:00.872Z,929.39
2016-11-11T02:18:13.908Z,929.34
2016-11-11T02:19:27.557Z,929.35
2016-11-11T02:20:40.786Z,929.36
2016-11-11T02:21:54.395Z,929.35
2016-11-11T02:23:08.064Z,929.32
2016-11-11T02:24:21.222Z,929.27
2016-11-11T02:25:34.858Z,929.27
2016-11-11T02:26:48.477Z,929.22
2016-11-11T02:28:01.648Z,929.21
2016-11-11T02:29:15.227Z,929.22
2016-11-11T02:30:28.838Z,929.17
2016-11-11T02:31:42.143Z,929.17
2016-11-11T02:32:55.536Z,929.08
2016-11-11T02:34:09.166Z,929.12
2016-11-11T02:35:22.793Z,929.1
2016-11-11T02:36:36.474Z,929.13
2016-11-11T02:37:50.120Z,929.12
2016-11-11T02:39:03.109Z,929.11
2016-11-11T02:40:16.714Z,929.1
2016-11-11T02:41:30.301Z,929.08
2016-11-11T02:42:44.100Z,929.05
2016-11-11T02:43:57.679Z,929.03
2016-11-11T02:45:11.261Z,929.03
2016-11-11T02:46:24.876Z,928.95
2016-11-11T02:47:37.986Z,928.93
2016-11-11T02:48:51.053Z,928.86
2016-11-11T02:50:04.299Z,928.8
2016-11-11T02:51:17.982Z,928.79
2016-11-11T02:52:31.622Z,928.8
2016-11-11T02:53:45.275Z,928.79
2016-11-11T02:54:58.956Z,928.82
2016-11-11T02:56:12.064Z,928.82
2016-11-11T02:57:24.649Z,928.88
2016-11-11T02:58:38.292Z,928.88
2016-11-11T02:59:51.688Z,928.9
2016-11-11T03:01:04.266Z,928.87
2016-11-11T03:02:17.828Z,928.9
2016-11-11T03:03:31.556Z,928.84
2016-11-11T03:04:44.811Z,928.9
2016-11-11T03:05:58.421Z,928.85
2016-11-11T03:07:11.560Z,928.85
2016-11-11T03:08:24.088Z,928.79
2016-11-11T03:09:37.708Z,928.78
2016-11-11T03:10:51.353Z,928.82
2016-11-11T03:12:04.426Z,928.84
2016-11-11T03:13:17.608Z,928.83
2016-11-11T03:14:31.234Z,928.81
2016-11-11T03:15:44.861Z,928.79
2016-11-11T03:16:58.239Z,928.78
2016-11-11T03:18:11.873Z,928.79
2016-11-11T03:19:24.958Z,928.73
2016-11-11T03:20:38.611Z,928.73
2016-11-11T03:21:51.689Z,928.72
2016-11-11T03:23:05.297Z,928.68
2016-11-11T03:24:18.875Z,928.65
2016-11-11T03:25:31.603Z,928.63
2016-11-11T03:26:45.213Z,928.64
2016-11-11T03:27:58.764Z,928.62
2016-11-11T03:29:12.345Z,928.61
2016-11-11T03:30:25.679Z,928.59
2016-11-11T03:33:23.584Z,928.54
2016-11-11T03:34:36.863Z,928.53
2016-11-11T03:35:50.617Z,928.5
2016-11-11T03:37:04.032Z,928.48
2016-11-11T03:38:17.650Z,928.47
2016-11-11T03:39:31.243Z,928.43
2016-11-11T03:40:44.944Z,928.46
2016-11-11T03:41:58.540Z,928.41
2016-11-11T03:43:11.645Z,928.44
2016-11-11T03:44:24.656Z,928.42
2016-11-11T03:45:37.787Z,928.41
2016-11-11T03:46:51.383Z,928.43
2016-11-11T03:48:04.386Z,928.41
2016-11-11T03:49:18.103Z,928.4
2016-11-11T03:50:31.220Z,928.37
2016-11-11T03:51:44.868Z,928.39
2016-11-11T03:52:58.247Z,928.36
2016-11-11T03:54:11.854Z,928.34
2016-11-11T03:55:25.579Z,928.41
2016-11-11T03:56:38.708Z,928.38
2016-11-11T03:57:50.957Z,928.43
2016-11-11T03:59:04.588Z,928.44
2016-11-11T04:00:17.678Z,928.42
2016-11-11T04:01:30.775Z,928.44
2016-11-11T04:02:44.334Z,928.39
2016-11-11T04:03:57.906Z,928.39
2016-11-11T04:05:42.039Z,928.38
2016-11-11T04:06:54.638Z,928.33
2016-11-11T04:08:08.242Z,928.32
2016-11-11T04:09:21.244Z,928.33
2016-11-11T04:10:34.242Z,928.29
2016-11-11T04:11:48.003Z,928.31
2016-11-11T04:13:01.076Z,928.28
2016-11-11T04:14:14.794Z,928.32
2016-11-11T04:15:28.439Z,928.33
2016-11-11T04:16:41.514Z,928.28
2016-11-11T04:17:55.200Z,928.28
2016-11-11T04:19:08.745Z,928.29
2016-11-11T04:20:22.266Z,928.29
2016-11-11T04:21:36.171Z,928.29
2016-11-11T04:22:49.702Z,928.33
2016-11-11T04:24:03.226Z,928.39
2016-11-11T04:25:16.883Z,928.4
2016-11-11T04:26:29.960Z,928.4
2016-11-11T04:27:43.069Z,928.36
2016-11-11T04:28:56.667Z,928.32
2016-11-11T04:30:09.794Z,928.35
2016-11-11T04:31:23.124Z,928.34
2016-11-11T04:32:36.246Z,928.31
2016-11-11T04:33:49.770Z,928.29
2016-11-11T04:35:03.369Z,928.31
2016-11-11T04:36:16.487Z,928.28
2016-11-11T04:37:30.184Z,928.31
2016-11-11T04:38:43.568Z,928.3
2016-11-11T04:39:56.057Z,928.3
2016-11-11T04:41:09.727Z,928.29
2016-11-11T04:42:23.844Z,928.35
2016-11-11T04:43:37.395Z,928.32
2016-11-11T04:44:49.946Z,928.35
2016-11-11T04:46:03.522Z,928.31
2016-11-11T04:47:16.762Z,928.33
2016-11-11T04:48:30.391Z,928.37
2016-11-11T04:49:43.241Z,928.36
2016-11-11T04:50:56.871Z,928.35
2016-11-11T04:52:09.930Z,928.32
2016-11-11T04:53:23.511Z,928.32
2016-11-11T04:54:36.989Z,928.29
2016-11-11T04:55:50.081Z,928.31
2016-11-11T04:58:47.379Z,928.27
2016-11-11T05:00:01.048Z,928.28
2016-11-11T05:01:14.067Z,928.26
2016-11-11T05:02:27.757Z,928.26
2016-11-11T05:03:40.779Z,928.25
2016-11-11T05:04:53.320Z,928.21
2016-11-11T05:06:06.890Z,928.2
2016-11-11T05:07:20.151Z,928.14
2016-11-11T05:08:32.664Z,928.12
2016-11-11T05:09:45.791Z,928.14
2016-11-11T05:10:59.382Z,928.11
2016-11-11T05:12:12.570Z,928.11
2016-11-11T05:13:26.261Z,928.08
2016-11-11T05:14:39.554Z,928.07
2016-11-11T05:15:52.050Z,928.08
2016-11-11T05:17:05.244Z,928.08
2016-11-11T05:18:18.502Z,928.1
2016-11-11T05:19:32.199Z,928.08
2016-11-11T05:20:45.762Z,928.08
2016-11-11T05:21:58.781Z,928.1
2016-11-11T05:23:43.101Z,928.08
2016-11-11T05:24:56.236Z,928.07
2016-11-11T05:26:09.326Z,928.07
2016-11-11T05:27:22.441Z,928.04
2016-11-11T05:28:35.513Z,928.02
2016-11-11T05:29:49.099Z,928.02
2016-11-11T05:31:02.658Z,928.01
2016-11-11T05:32:15.513Z,927.94
2016-11-11T05:33:29.132Z,927.96
2016-11-11T05:34:42.787Z,927.93
2016-11-11T05:35:55.881Z,927.95
2016-11-11T05:37:09.219Z,927.95
2016-11-11T05:38:22.848Z,927.93
2016-11-11T05:39:36.334Z,927.94
2016-11-11T05:40:49.952Z,927.94
2016-11-11T05:42:03.175Z,927.92
2016-11-11T05:43:47.924Z,927.94
2016-11-11T05:45:00.222Z,927.93
2016-11-11T05:46:13.850Z,928
2016-11-11T05:47:27.379Z,927.97
2016-11-11T05:48:40.600Z,928.02
2016-11-11T05:49:53.752Z,928.03
2016-11-11T05:51:06.742Z,928.05
2016-11-11T05:52:51.420Z,928.04
2016-11-11T05:54:04.466Z,928.02
2016-11-11T05:55:18.076Z,927.99
2016-11-11T05:56:31.155Z,928.02
2016-11-11T05:57:44.512Z,927.95
2016-11-11T05:58:58.118Z,927.96
2016-11-11T06:00:11.698Z,927.95
2016-11-11T06:01:24.825Z,927.95
2016-11-11T06:02:38.403Z,927.98
2016-11-11T06:03:51.337Z,928
2016-11-11T06:05:04.966Z,928
2016-11-11T06:06:18.133Z,928
2016-11-11T06:07:31.842Z,927.93
2016-11-11T06:08:45.419Z,927.95
2016-11-11T06:09:58.464Z,927.89
2016-11-11T06:11:11.629Z,927.9
2016-11-11T06:12:24.679Z,927.87
2016-11-11T06:13:38.327Z,927.85
2016-11-11T06:14:51.928Z,927.86
2016-11-11T06:16:05.480Z,927.83
2016-11-11T06:17:19.154Z,927.85
2016-11-11T06:18:32.724Z,927.91
2016-11-11T06:19:46.269Z,927.91
2016-11-11T06:20:59.363Z,927.93
2016-11-11T06:22:12.441Z,927.93
2016-11-11T06:23:26.162Z,927.93
2016-11-11T06:24:39.830Z,927.9
2016-11-11T06:25:53.472Z,927.94
2016-11-11T06:27:07.564Z,927.93
2016-11-11T06:28:21.156Z,927.93
2016-11-11T06:29:34.782Z,927.93
2016-11-11T06:30:47.379Z,927.93
2016-11-11T06:32:00.474Z,927.96
2016-11-11T06:33:13.989Z,927.94
2016-11-11T06:34:27.591Z,927.92
2016-11-11T06:35:41.182Z,927.91
2016-11-11T06:36:55.960Z,927.95
2016-11-11T06:38:09.613Z,927.96
2016-11-11T06:39:23.206Z,927.99
2016-11-11T06:40:36.384Z,927.97
2016-11-11T06:41:49.473Z,927.98
2016-11-11T06:43:03.309Z,928
2016-11-11T06:44:16.278Z,928.01
2016-11-11T06:45:29.264Z,928.02
2016-11-11T06:46:42.960Z,928.03
2016-11-11T06:47:55.992Z,928.02
2016-11-11T06:49:09.634Z,928.07
2016-11-11T06:50:22.835Z,928.06
2016-11-11T06:51:36.297Z,928.06
2016-11-11T06:52:49.489Z,928.06
2016-11-11T06:54:02.540Z,928.07
2016-11-11T06:55:15.685Z,928.04
2016-11-11T06:56:28.715Z,928.08
2016-11-11T06:57:42.385Z,928.09
2016-11-11T06:58:55.441Z,928.14
2016-11-11T07:00:09.042Z,928.16
2016-11-11T07:01:22.667Z,928.12
2016-11-11T07:02:35.410Z,928.1
2016-11-11T07:03:48.999Z,928.09
2016-11-11T07:05:02.068Z,928.07
2016-11-11T07:06:15.126Z,928.05
2016-11-11T07:07:27.091Z,928.07
2016-11-11T07:08:40.641Z,928.11
2016-11-11T07:09:54.274Z,928.11
2016-11-11T07:11:07.871Z,928.16
2016-11-11T07:12:21.471Z,928.18
2016-11-11T07:13:34.531Z,928.24
2016-11-11T07:14:47.646Z,928.26
2016-11-11T07:16:01.256Z,928.23
2016-11-11T07:17:14.383Z,928.19
2016-11-11T07:18:27.998Z,928.18
2016-11-11T07:19:41.617Z,928.14
2016-11-11T07:20:54.623Z,928.13
2016-11-11T07:22:07.663Z,928.11
2016-11-11T07:23:21.284Z,928.11
2016-11-11T07:25:05.456Z,928.08
2016-11-11T07:26:18.576Z,928.09
2016-11-11T07:27:31.613Z,928.03
2016-11-11T07:28:45.202Z,928.02
2016-11-11T07:29:58.321Z,928.03
2016-11-11T07:31:10.847Z,927.99
2016-11-11T07:32:24.433Z,927.99
2016-11-11T07:33:37.318Z,927.96
2016-11-11T07:34:50.728Z,927.96
2016-11-11T07:36:04.063Z,927.97
2016-11-11T07:37:17.202Z,927.95
2016-11-11T07:38:30.253Z,927.96
2016-11-11T07:39:43.889Z,927.97
2016-11-11T07:40:57.014Z,927.97
2016-11-11T07:42:10.695Z,927.94
2016-11-11T07:43:24.071Z,927.93
2016-11-11T07:44:37.916Z,927.97
2016-11-11T07:45:50.976Z,927.93
2016-11-11T07:47:04.602Z,927.91
2016-11-11T07:48:17.664Z,927.9
2016-11-11T07:49:31.263Z,927.9
2016-11-11T07:50:44.832Z,927.93
2016-11-11T07:51:58.461Z,927.93
2016-11-11T07:53:11.824Z,927.95
2016-11-11T07:54:25.474Z,927.91
2016-11-11T07:55:38.591Z,927.95
2016-11-11T07:56:51.717Z,927.95
2016-11-11T07:58:05.377Z,927.96
2016-11-11T07:59:18.469Z,927.96
2016-11-11T08:00:32.027Z,927.96
2016-11-11T08:01:45.561Z,927.97
2016-11-11T08:02:59.276Z,928
2016-11-11T08:04:12.876Z,928
2016-11-11T08:05:26.557Z,927.99
2016-11-11T08:06:40.145Z,928.01
2016-11-11T08:07:52.676Z,928.01
2016-11-11T08:09:06.294Z,928
2016-11-11T08:10:19.319Z,927.99
2016-11-11T08:11:33.304Z,928
2016-11-11T08:12:46.905Z,928
2016-11-11T08:14:00.017Z,928.04
2016-11-11T08:15:13.663Z,928.06
2016-11-11T08:16:27.304Z,928.04
2016-11-11T08:17:41.215Z,928.05
2016-11-11T08:18:54.799Z,928.01
2016-11-11T08:20:08.448Z,928.05
2016-11-11T08:21:21.692Z,928.06
2016-11-11T08:22:35.304Z,928.06
2016-11-11T08:23:48.646Z,928.09
2016-11-11T08:25:02.281Z,928.07
2016-11-11T08:26:15.263Z,928.13
2016-11-11T08:27:28.923Z,928.17
2016-11-11T08:28:42.553Z,928.23
2016-11-11T08:29:56.146Z,928.22
2016-11-11T08:31:09.218Z,928.24
2016-11-11T08:32:22.349Z,928.19
2016-11-11T08:33:36.391Z,928.23
2016-11-11T08:34:49.687Z,928.28
2016-11-11T08:36:03.357Z,928.33
2016-11-11T08:37:16.995Z,928.36
2016-11-11T08:38:29.540Z,928.44
2016-11-11T08:39:43.160Z,928.44
2016-11-11T08:40:56.371Z,928.47
2016-11-11T08:42:10.685Z,928.49
2016-11-11T08:43:23.203Z,928.52
2016-11-11T08:44:36.548Z,928.49
2016-11-11T08:45:50.119Z,928.49
2016-11-11T08:47:03.786Z,928.47
2016-11-11T08:48:16.994Z,928.46
2016-11-11T08:49:30.670Z,928.46
2016-11-11T08:50:44.259Z,928.51
2016-11-11T08:51:57.910Z,928.53
2016-11-11T08:53:11.283Z,928.55
2016-11-11T08:54:24.861Z,928.59
2016-11-11T08:55:38.434Z,928.57
2016-11-11T08:56:52.103Z,928.63
2016-11-11T08:58:05.621Z,928.64
2016-11-11T08:59:18.276Z,928.66
2016-11-11T09:00:31.858Z,928.65
2016-11-11T09:01:45.529Z,928.67
2016-11-11T09:02:59.193Z,928.64
2016-11-11T09:04:12.740Z,928.68
2016-11-11T09:05:26.387Z,928.67
2016-11-11T09:06:39.957Z,928.71
2016-11-11T09:08:07.630Z,928.68
2016-11-11T09:09:20.688Z,928.67
2016-11-11T09:10:34.414Z,928.67
2016-11-11T09:11:47.946Z,928.67
2016-11-11T09:13:01.556Z,928.68
2016-11-11T09:14:14.939Z,928.7
2016-11-11T09:15:28.520Z,928.67
2016-11-11T09:16:42.119Z,928.67
2016-11-11T09:17:55.769Z,928.63
2016-11-11T09:19:09.532Z,928.64
2016-11-11T09:20:23.185Z,928.64
2016-11-11T09:21:36.814Z,928.67
2016-11-11T09:22:50.454Z,928.67
2016-11-11T09:24:03.523Z,928.68
2016-11-11T09:25:17.546Z,928.7
2016-11-11T09:26:30.585Z,928.69
2016-11-11T09:27:43.959Z,928.67
2016-11-11T09:28:57.540Z,928.64
2016-11-11T09:30:11.050Z,928.66
2016-11-11T09:31:55.749Z,928.65
2016-11-11T09:33:09.412Z,928.64
2016-11-11T09:34:22.668Z,928.7
2016-11-11T09:35:36.467Z,928.64
2016-11-11T09:36:50.161Z,928.7
2016-11-11T09:38:03.704Z,928.72
2016-11-11T09:39:17.266Z,928.71
2016-11-11T09:41:01.969Z,928.66
2016-11-11T09:42:15.568Z,928.68
2016-11-11T09:43:29.178Z,928.68
2016-11-11T09:44:42.886Z,928.71
2016-11-11T09:46:27.561Z,928.69
2016-11-11T09:47:41.140Z,928.71
2016-11-11T09:48:54.723Z,928.71
2016-11-11T09:50:08.260Z,928.69
2016-11-11T09:51:21.932Z,928.7
2016-11-11T09:52:34.992Z,928.65
2016-11-11T09:53:48.646Z,928.62
2016-11-11T09:55:02.335Z,928.6
2016-11-11T09:56:15.673Z,928.59
2016-11-11T09:57:29.285Z,928.61
2016-11-11T09:58:42.854Z,928.62
2016-11-11T09:59:56.461Z,928.57
2016-11-11T10:01:10.159Z,928.6
2016-11-11T10:02:23.810Z,928.58
2016-11-11T10:03:37.663Z,928.6
2016-11-11T10:04:50.787Z,928.56
2016-11-11T10:06:04.560Z,928.54
2016-11-11T10:07:18.180Z,928.55
2016-11-11T10:08:31.743Z,928.53
2016-11-11T10:09:45.321Z,928.51
2016-11-11T10:10:59.050Z,928.5
2016-11-11T10:12:12.670Z,928.48
2016-11-11T10:13:26.304Z,928.48
2016-11-11T10:14:39.907Z,928.44
2016-11-11T10:15:53.557Z,928.36
2016-11-11T10:17:07.683Z,928.35
2016-11-11T10:18:21.273Z,928.28
2016-11-11T10:19:34.950Z,928.27
2016-11-11T10:20:48.508Z,928.21
2016-11-11T10:22:02.235Z,928.11
2016-11-11T10:23:15.846Z,928.06
2016-11-11T10:24:29.438Z,928.02
2016-11-11T10:25:43.056Z,928.03
2016-11-11T10:26:56.768Z,928.01
2016-11-11T10:28:10.799Z,927.99
2016-11-11T10:29:24.143Z,927.99
2016-11-11T10:30:37.691Z,927.98
2016-11-11T10:31:51.226Z,927.96
2016-11-11T10:33:04.777Z,927.91
2016-11-11T10:34:18.378Z,927.85
2016-11-11T10:35:31.967Z,927.8
2016-11-11T10:36:44.457Z,927.73
2016-11-11T10:37:57.766Z,927.71
2016-11-11T10:39:11.055Z,927.74
2016-11-11T10:40:23.887Z,927.76
2016-11-11T10:41:37.704Z,927.81
2016-11-11T10:42:51.281Z,927.87
2016-11-11T10:44:04.556Z,927.87
2016-11-11T10:45:18.227Z,927.91
2016-11-11T10:46:31.835Z,927.84
2016-11-11T10:47:45.436Z,927.86
2016-11-11T10:48:59.058Z,927.83
2016-11-11T10:50:11.838Z,927.88
2016-11-11T10:51:25.486Z,927.88
2016-11-11T10:52:39.169Z,927.85
2016-11-11T10:53:52.809Z,927.82
2016-11-11T10:55:06.514Z,927.84
2016-11-11T10:56:20.233Z,927.83
2016-11-11T10:57:33.768Z,927.82
2016-11-11T10:58:47.312Z,927.78
2016-11-11T11:00:00.944Z,927.74
2016-11-11T11:01:14.554Z,927.77
2016-11-11T11:02:28.154Z,927.74
2016-11-11T11:03:41.803Z,927.8
2016-11-11T11:04:55.470Z,927.75
2016-11-11T11:06:09.053Z,927.83
2016-11-11T11:07:22.592Z,927.82
2016-11-11T11:08:36.536Z,927.89
2016-11-11T11:09:50.150Z,927.9
2016-11-11T11:11:03.708Z,927.92
2016-11-11T11:12:17.445Z,928.01
2016-11-11T11:13:31.027Z,928
2016-11-11T11:14:44.584Z,928.05
2016-11-11T11:15:58.226Z,928.04
2016-11-11T11:17:11.776Z,928.01
2016-11-11T11:18:25.365Z,927.98
2016-11-11T11:21:23.344Z,928
2016-11-11T11:22:37.113Z,928.05
2016-11-11T11:23:50.735Z,928.07
2016-11-11T11:25:04.533Z,928.05
2016-11-11T11:26:18.574Z,928.06
2016-11-11T11:27:32.161Z,927.99
2016-11-11T11:28:45.742Z,927.98
2016-11-11T11:29:58.845Z,928.02
2016-11-11T11:31:12.495Z,928.04
2016-11-11T11:32:26.100Z,928.04
2016-11-11T11:33:39.692Z,928.04
2016-11-11T11:34:53.289Z,927.99
2016-11-11T11:36:06.970Z,928.03
2016-11-11T11:37:20.574Z,927.96
2016-11-11T11:38:34.159Z,928.05
2016-11-11T11:39:47.761Z,927.99
2016-11-11T11:41:01.430Z,928
2016-11-11T11:42:14.627Z,927.98
2016-11-11T11:43:28.277Z,928
2016-11-11T11:44:41.895Z,928.02
2016-11-11T11:45:55.496Z,928.07
2016-11-11T11:47:09.047Z,928.06
2016-11-11T11:48:22.144Z,928.09
2016-11-11T11:49:35.731Z,928.05
2016-11-11T11:50:49.315Z,928.05
2016-11-11T11:52:02.905Z,927.99
2016-11-11T11:53:16.515Z,927.98
2016-11-11T11:54:29.772Z,928.02
2016-11-11T11:55:43.124Z,928.02
2016-11-11T11:56:56.715Z,928.01
2016-11-11T11:58:10.804Z,928.03
2016-11-11T11:59:24.455Z,928.09
2016-11-11T12:00:37.778Z,928.09
2016-11-11T12:01:51.364Z,928.08
2016-11-11T12:03:04.955Z,928.12
2016-11-11T12:04:18.656Z,928.16
2016-11-11T12:05:31.784Z,928.18
2016-11-11T12:06:45.065Z,928.17
2016-11-11T12:07:58.668Z,928.08
2016-11-11T12:09:12.387Z,928.15
2016-11-11T12:10:26.000Z,928.07
2016-11-11T12:11:39.541Z,928.14
2016-11-11T12:12:53.180Z,928.07
2016-11-11T12:14:06.817Z,928.17
2016-11-11T12:15:20.446Z,928.21
2016-11-11T12:16:34.031Z,928.16
2016-11-11T12:17:47.140Z,928.23
2016-11-11T12:19:00.717Z,928.27
2016-11-11T12:20:14.315Z,928.28
2016-11-11T12:21:28.073Z,928.25
2016-11-11T12:22:41.609Z,928.21
2016-11-11T12:23:55.266Z,928.18
2016-11-11T12:25:08.847Z,928.21
2016-11-11T12:26:22.521Z,928.19
2016-11-11T12:27:36.572Z,928.21
2016-11-11T12:29:21.292Z,928.28
2016-11-11T12:30:34.999Z,928.29
2016-11-11T12:31:48.610Z,928.25
2016-11-11T12:33:02.285Z,928.17
2016-11-11T12:34:15.888Z,928.24
2016-11-11T12:35:29.506Z,928.22
2016-11-11T12:36:43.213Z,928.17
2016-11-11T12:37:56.608Z,928.18
2016-11-11T12:39:10.202Z,928.14
2016-11-11T12:40:23.934Z,928.12
2016-11-11T12:41:37.721Z,928.16
2016-11-11T12:42:51.332Z,928.18
2016-11-11T12:44:05.012Z,928.16
2016-11-11T12:45:18.339Z,928.16
2016-11-11T12:46:32.105Z,928.19
2016-11-11T12:47:45.804Z,928.15
2016-11-11T12:48:59.550Z,928.13
2016-11-11T12:50:13.248Z,928.18
2016-11-11T12:51:26.573Z,928.15
2016-11-11T12:52:40.163Z,928.19
2016-11-11T12:53:53.952Z,928.26
2016-11-11T12:55:07.793Z,928.2
2016-11-11T12:56:20.843Z,928.22
2016-11-11T12:57:34.602Z,928.2
2016-11-11T12:58:48.164Z,928.22
2016-11-11T13:00:01.762Z,928.19
2016-11-11T13:01:15.372Z,928.13
2016-11-11T13:02:28.885Z,928.11
2016-11-11T13:03:42.481Z,928.13
2016-11-11T13:04:56.097Z,928.22
2016-11-11T13:06:09.640Z,928.23
2016-11-11T13:07:23.344Z,928.22
2016-11-11T13:08:36.935Z,928.17
2016-11-11T13:09:50.597Z,928.17
2016-11-11T13:11:04.603Z,928.15
2016-11-11T13:12:17.703Z,928.17
2016-11-11T13:13:31.313Z,928.16
2016-11-11T13:14:44.934Z,928.09
2016-11-11T13:15:58.663Z,928.06
2016-11-11T13:17:12.239Z,928.07
2016-11-11T13:18:25.813Z,928.02
2016-11-11T13:19:39.502Z,928.05
2016-11-11T13:20:53.077Z,928.02
2016-11-11T13:22:06.587Z,927.94
2016-11-11T13:23:20.232Z,927.87
2016-11-11T13:24:33.629Z,927.93
2016-11-11T13:25:47.266Z,927.92
2016-11-11T13:27:00.952Z,927.87
2016-11-11T13:28:14.645Z,927.8
2016-11-11T13:29:28.243Z,927.83
2016-11-11T13:30:41.017Z,927.79
2016-11-11T13:31:54.654Z,927.83
2016-11-11T13:33:08.284Z,927.78
2016-11-11T13:34:21.946Z,927.89
2016-11-11T13:35:35.615Z,927.86
2016-11-11T13:36:49.293Z,927.85
2016-11-11T13:38:02.999Z,927.88
2016-11-11T13:39:17.093Z,927.87
2016-11-11T13:40:30.752Z,927.82
2016-11-11T13:41:44.372Z,927.89
2016-11-11T13:42:58.050Z,927.85
2016-11-11T13:44:11.680Z,927.71
2016-11-11T13:45:25.288Z,927.68
2016-11-11T13:46:38.916Z,927.76
2016-11-11T13:47:52.582Z,927.73
2016-11-11T13:49:06.630Z,927.65
2016-11-11T13:50:20.343Z,927.69
2016-11-11T13:51:33.891Z,927.63
2016-11-11T13:52:47.513Z,927.6
2016-11-11T13:54:01.052Z,927.72
2016-11-11T13:55:15.065Z,927.61
2016-11-11T13:56:28.701Z,927.59
2016-11-11T13:57:42.224Z,927.5
2016-11-11T13:58:55.825Z,927.56
2016-11-11T14:00:09.482Z,927.58
2016-11-11T14:01:23.065Z,927.63
2016-11-11T14:02:36.061Z,927.6
2016-11-11T14:03:49.632Z,927.57
2016-11-11T14:05:03.465Z,927.6
2016-11-11T14:06:17.081Z,927.55
2016-11-11T14:07:30.168Z,927.61
2016-11-11T14:08:44.045Z,927.59
2016-11-11T14:09:57.675Z,927.56
2016-11-11T14:11:11.218Z,927.54
2016-11-11T14:12:24.812Z,927.51
2016-11-11T14:13:38.465Z,927.55
2016-11-11T14:14:52.026Z,927.55
2016-11-11T14:16:05.041Z,927.56
2016-11-11T14:17:18.645Z,927.56
2016-11-11T14:18:32.315Z,927.59
2016-11-11T14:19:45.972Z,927.57
2016-11-11T14:20:59.081Z,927.52
2016-11-11T14:22:12.671Z,927.42
2016-11-11T14:23:26.297Z,927.4
2016-11-11T14:24:39.881Z,927.35
2016-11-11T14:25:53.731Z,927.32
2016-11-11T14:27:07.810Z,927.35
2016-11-11T14:28:21.488Z,927.44
2016-11-11T14:29:35.079Z,927.39
2016-11-11T14:30:48.725Z,927.37
2016-11-11T14:32:02.357Z,927.48
2016-11-11T14:33:15.994Z,927.44
2016-11-11T14:34:29.686Z,927.38
2016-11-11T14:35:42.505Z,927.36
2016-11-11T14:36:56.184Z,927.31
2016-11-11T14:38:09.843Z,927.3
2016-11-11T14:39:23.514Z,927.35
2016-11-11T14:40:36.651Z,927.32
2016-11-11T14:41:50.275Z,927.19
2016-11-11T14:43:03.865Z,927.34
2016-11-11T14:44:17.448Z,927.23
2016-11-11T14:45:31.034Z,927.17
2016-11-11T14:46:44.622Z,927.19
2016-11-11T14:47:58.762Z,927.11
2016-11-11T14:49:12.433Z,927.19
2016-11-11T14:50:26.081Z,927.16
2016-11-11T14:51:39.694Z,927.13
2016-11-11T14:53:24.455Z,927.05
2016-11-11T14:54:37.888Z,927.06
2016-11-11T14:55:51.507Z,927.05
2016-11-11T14:57:05.262Z,926.97
2016-11-11T14:58:18.970Z,926.92
2016-11-11T14:59:32.564Z,926.93
2016-11-11T15:00:46.161Z,926.91
2016-11-11T15:01:59.298Z,926.9
2016-11-11T15:03:12.976Z,926.9
2016-11-11T15:04:26.676Z,926.97
2016-11-11T15:05:39.691Z,926.92
2016-11-11T15:06:53.258Z,926.85
2016-11-11T15:08:06.848Z,926.85
2016-11-11T15:09:20.507Z,926.86
2016-11-11T15:10:34.085Z,926.86
2016-11-11T15:11:47.674Z,926.77
2016-11-11T15:13:01.080Z,926.78
2016-11-11T15:14:14.737Z,926.82
2016-11-11T15:15:59.181Z,926.74
2016-11-11T15:17:12.814Z,926.68
2016-11-11T15:18:26.453Z,926.69
2016-11-11T15:19:40.113Z,926.73
2016-11-11T15:20:53.698Z,926.68
2016-11-11T15:22:07.292Z,926.61
2016-11-11T15:23:20.903Z,926.54
2016-11-11T15:24:34.719Z,926.54
2016-11-11T15:25:48.067Z,926.58
2016-11-11T15:27:01.676Z,926.5
2016-11-11T15:28:15.324Z,926.54
2016-11-11T15:29:28.985Z,926.6
2016-11-11T15:30:42.641Z,926.5
2016-11-11T15:31:56.365Z,926.46